sensor_id;sensor_type;location;lat;lon;timestamp;P1;durP1;ratioP1;P2;durP2;ratioP2
44564;SDS011;30275;51.822;-0.326;2022-11-09T00:01:14;14.30;;;3.03;;
44564;SDS011;30275;51.822;-0.326;2022-11-09T00:03:40;14.20;;;3.47;;
44564;SDS011;30275;51.822;-0.326;2022-11-09T00:06:06;17.50;;;3.08;;
44564;SDS011;30275;51.822;-0.326;2022-11-09T00:08:31;16.15;;;2.70;;
44564;SDS011;30275;51.822;-0.326;2022-11-09T00:11:01;14.32;;;3.65;;
44564;SDS011;30275;51.822;-0.326;2022-11-09T00:13:31;16.67;;;3.22;;
44564;SDS011;30275;51.822;-0.326;2022-11-09T00:16:00;19.13;;;4.50;;
44564;SDS011;30275;51.822;-0.326;2022-11-09T00:18:26;19.23;;;3.10;;
44564;SDS011;30275;51.822;-0.326;2022-11-09T00:20:53;17.77;;;3.75;;
44564;SDS011;30275;51.822;-0.326;2022-11-09T00:23:19;16.38;;;2.45;;
44564;SDS011;30275;51.822;-0.326;2022-11-09T00:25:45;13.75;;;2.88;;
44564;SDS011;30275;51.822;-0.326;2022-11-09T00:28:12;13.10;;;3.75;;
44564;SDS011;30275;51.822;-0.326;2022-11-09T00:30:38;15.98;;;2.65;;
44564;SDS011;30275;51.822;-0.326;2022-11-09T00:33:04;18.02;;;4.32;;
44564;SDS011;30275;51.822;-0.326;2022-11-09T00:35:30;17.20;;;3.33;;
44564;SDS011;30275;51.822;-0.326;2022-11-09T00:37:56;11.30;;;3.03;;
44564;SDS011;30275;51.822;-0.326;2022-11-09T00:40:22;15.02;;;3.38;;
44564;SDS011;30275;51.822;-0.326;2022-11-09T00:42:48;10.57;;;2.25;;
44564;SDS011;30275;51.822;-0.326;2022-11-09T00:45:13;12.30;;;3.55;;
44564;SDS011;30275;51.822;-0.326;2022-11-09T00:47:39;16.88;;;3.35;;
44564;SDS011;30275;51.822;-0.326;2022-11-09T00:50:05;18.25;;;4.75;;
44564;SDS011;30275;51.822;-0.326;2022-11-09T00:52:31;9.52;;;3.50;;
44564;SDS011;30275;51.822;-0.326;2022-11-09T00:54:56;12.05;;;3.22;;
44564;SDS011;30275;51.822;-0.326;2022-11-09T00:57:22;7.75;;;1.60;;
44564;SDS011;30275;51.822;-0.326;2022-11-09T00:59:47;14.25;;;2.22;;
44564;SDS011;30275;51.822;-0.326;2022-11-09T01:02:13;19.27;;;2.63;;
44564;SDS011;30275;51.822;-0.326;2022-11-09T01:04:39;13.02;;;3.05;;
44564;SDS011;30275;51.822;-0.326;2022-11-09T01:07:06;8.00;;;2.38;;
44564;SDS011;30275;51.822;-0.326;2022-11-09T01:09:32;6.10;;;2.03;;
44564;SDS011;30275;51.822;-0.326;2022-11-09T01:11:58;11.70;;;2.38;;
44564;SDS011;30275;51.822;-0.326;2022-11-09T01:14:24;12.77;;;2.28;;
44564;SDS011;30275;51.822;-0.326;2022-11-09T01:16:49;9.65;;;2.00;;
44564;SDS011;30275;51.822;-0.326;2022-11-09T01:19:15;13.45;;;2.50;;
44564;SDS011;30275;51.822;-0.326;2022-11-09T01:21:41;6.28;;;1.77;;
44564;SDS011;30275;51.822;-0.326;2022-11-09T01:24:07;19.77;;;2.78;;
44564;SDS011;30275;51.822;-0.326;2022-11-09T01:26:33;13.70;;;3.22;;
44564;SDS011;30275;51.822;-0.326;2022-11-09T01:28:59;15.05;;;2.88;;
44564;SDS011;30275;51.822;-0.326;2022-11-09T01:31:24;10.57;;;2.80;;
44564;SDS011;30275;51.822;-0.326;2022-11-09T01:33:50;13.32;;;2.50;;
44564;SDS011;30275;51.822;-0.326;2022-11-09T01:36:17;13.27;;;2.85;;
44564;SDS011;30275;51.822;-0.326;2022-11-09T01:38:45;12.60;;;2.72;;
44564;SDS011;30275;51.822;-0.326;2022-11-09T01:41:14;15.02;;;3.10;;
44564;SDS011;30275;51.822;-0.326;2022-11-09T01:46:41;13.00;;;2.25;;
44564;SDS011;30275;51.822;-0.326;2022-11-09T01:49:10;13.23;;;3.65;;
44564;SDS011;30275;51.822;-0.326;2022-11-09T01:51:45;9.80;;;2.22;;
44564;SDS011;30275;51.822;-0.326;2022-11-09T01:54:26;15.65;;;3.55;;
44564;SDS011;30275;51.822;-0.326;2022-11-09T01:56:57;9.02;;;2.22;;
44564;SDS011;30275;51.822;-0.326;2022-11-09T01:59:33;13.35;;;2.80;;
44564;SDS011;30275;51.822;-0.326;2022-11-09T02:02:03;10.38;;;3.25;;
44564;SDS011;30275;51.822;-0.326;2022-11-09T02:04:30;11.07;;;2.38;;
44564;SDS011;30275;51.822;-0.326;2022-11-09T02:07:00;17.47;;;2.57;;
44564;SDS011;30275;51.822;-0.326;2022-11-09T02:12:00;17.92;;;2.75;;
44564;SDS011;30275;51.822;-0.326;2022-11-09T02:14:26;14.15;;;3.10;;
44564;SDS011;30275;51.822;-0.326;2022-11-09T02:16:53;13.80;;;2.95;;
44564;SDS011;30275;51.822;-0.326;2022-11-09T02:19:19;15.23;;;4.15;;
44564;SDS011;30275;51.822;-0.326;2022-11-09T02:21:44;9.88;;;2.25;;
44564;SDS011;30275;51.822;-0.326;2022-11-09T02:24:10;14.30;;;3.28;;
44564;SDS011;30275;51.822;-0.326;2022-11-09T02:29:36;13.07;;;2.38;;
44564;SDS011;30275;51.822;-0.326;2022-11-09T02:32:38;14.30;;;2.80;;
44564;SDS011;30275;51.822;-0.326;2022-11-09T02:34:57;9.00;;;2.72;;
44564;SDS011;30275;51.822;-0.326;2022-11-09T02:37:46;16.27;;;2.95;;
44564;SDS011;30275;51.822;-0.326;2022-11-09T02:40:21;21.02;;;3.40;;
44564;SDS011;30275;51.822;-0.326;2022-11-09T02:42:56;13.07;;;2.17;;
44564;SDS011;30275;51.822;-0.326;2022-11-09T02:45:24;13.85;;;2.45;;
44564;SDS011;30275;51.822;-0.326;2022-11-09T02:47:50;15.18;;;3.38;;
44564;SDS011;30275;51.822;-0.326;2022-11-09T02:50:15;19.85;;;4.18;;
44564;SDS011;30275;51.822;-0.326;2022-11-09T02:52:41;18.58;;;3.13;;
44564;SDS011;30275;51.822;-0.326;2022-11-09T02:55:07;14.32;;;3.05;;
44564;SDS011;30275;51.822;-0.326;2022-11-09T02:57:33;16.67;;;3.90;;
44564;SDS011;30275;51.822;-0.326;2022-11-09T02:59:58;13.50;;;2.80;;
44564;SDS011;30275;51.822;-0.326;2022-11-09T03:02:24;14.75;;;3.53;;
44564;SDS011;30275;51.822;-0.326;2022-11-09T03:04:50;18.38;;;3.15;;
44564;SDS011;30275;51.822;-0.326;2022-11-09T03:07:15;11.50;;;4.05;;
44564;SDS011;30275;51.822;-0.326;2022-11-09T03:09:41;12.00;;;2.60;;
44564;SDS011;30275;51.822;-0.326;2022-11-09T03:12:07;8.25;;;2.22;;
44564;SDS011;30275;51.822;-0.326;2022-11-09T03:14:51;21.17;;;2.95;;
44564;SDS011;30275;51.822;-0.326;2022-11-09T03:17:16;11.40;;;2.97;;
44564;SDS011;30275;51.822;-0.326;2022-11-09T03:19:42;18.17;;;2.70;;
44564;SDS011;30275;51.822;-0.326;2022-11-09T03:22:08;12.05;;;2.38;;
44564;SDS011;30275;51.822;-0.326;2022-11-09T03:24:34;14.07;;;3.38;;
44564;SDS011;30275;51.822;-0.326;2022-11-09T03:27:00;18.45;;;2.83;;
44564;SDS011;30275;51.822;-0.326;2022-11-09T03:29:25;14.02;;;2.38;;
44564;SDS011;30275;51.822;-0.326;2022-11-09T03:31:51;15.20;;;3.92;;
44564;SDS011;30275;51.822;-0.326;2022-11-09T03:34:17;14.70;;;2.88;;
44564;SDS011;30275;51.822;-0.326;2022-11-09T03:36:42;10.07;;;1.90;;
44564;SDS011;30275;51.822;-0.326;2022-11-09T03:39:08;15.63;;;3.28;;
44564;SDS011;30275;51.822;-0.326;2022-11-09T03:41:33;8.82;;;2.67;;
44564;SDS011;30275;51.822;-0.326;2022-11-09T03:43:59;7.07;;;2.05;;
44564;SDS011;30275;51.822;-0.326;2022-11-09T03:46:25;10.27;;;2.45;;
44564;SDS011;30275;51.822;-0.326;2022-11-09T03:48:51;14.15;;;2.80;;
44564;SDS011;30275;51.822;-0.326;2022-11-09T03:51:17;15.27;;;2.30;;
44564;SDS011;30275;51.822;-0.326;2022-11-09T03:53:42;14.82;;;3.63;;
44564;SDS011;30275;51.822;-0.326;2022-11-09T03:56:08;15.98;;;3.47;;
44564;SDS011;30275;51.822;-0.326;2022-11-09T03:58:34;13.98;;;2.58;;
44564;SDS011;30275;51.822;-0.326;2022-11-09T04:00:59;14.20;;;2.50;;
44564;SDS011;30275;51.822;-0.326;2022-11-09T04:03:25;14.90;;;2.53;;
44564;SDS011;30275;51.822;-0.326;2022-11-09T04:05:51;10.93;;;2.35;;
44564;SDS011;30275;51.822;-0.326;2022-11-09T04:08:16;12.32;;;2.97;;
44564;SDS011;30275;51.822;-0.326;2022-11-09T04:10:42;14.82;;;2.63;;
44564;SDS011;30275;51.822;-0.326;2022-11-09T04:13:08;13.50;;;3.22;;
44564;SDS011;30275;51.822;-0.326;2022-11-09T04:15:34;16.17;;;2.95;;
44564;SDS011;30275;51.822;-0.326;2022-11-09T04:18:00;15.73;;;3.72;;
44564;SDS011;30275;51.822;-0.326;2022-11-09T04:20:27;11.13;;;2.83;;
44564;SDS011;30275;51.822;-0.326;2022-11-09T04:22:59;10.60;;;3.20;;
44564;SDS011;30275;51.822;-0.326;2022-11-09T04:25:26;14.70;;;3.42;;
44564;SDS011;30275;51.822;-0.326;2022-11-09T04:27:55;19.52;;;3.53;;
44564;SDS011;30275;51.822;-0.326;2022-11-09T04:30:22;16.63;;;4.13;;
44564;SDS011;30275;51.822;-0.326;2022-11-09T04:32:48;9.88;;;2.17;;
44564;SDS011;30275;51.822;-0.326;2022-11-09T04:35:14;11.70;;;2.85;;
44564;SDS011;30275;51.822;-0.326;2022-11-09T04:37:40;12.93;;;2.40;;
44564;SDS011;30275;51.822;-0.326;2022-11-09T04:40:06;13.05;;;3.05;;
44564;SDS011;30275;51.822;-0.326;2022-11-09T04:42:32;11.60;;;2.97;;
44564;SDS011;30275;51.822;-0.326;2022-11-09T04:44:57;11.80;;;2.28;;
44564;SDS011;30275;51.822;-0.326;2022-11-09T04:47:23;10.80;;;2.33;;
44564;SDS011;30275;51.822;-0.326;2022-11-09T04:49:48;9.63;;;2.15;;
44564;SDS011;30275;51.822;-0.326;2022-11-09T04:52:14;8.60;;;1.88;;
44564;SDS011;30275;51.822;-0.326;2022-11-09T04:54:40;12.25;;;2.42;;
44564;SDS011;30275;51.822;-0.326;2022-11-09T04:57:05;19.40;;;2.65;;
44564;SDS011;30275;51.822;-0.326;2022-11-09T04:59:31;14.80;;;2.55;;
44564;SDS011;30275;51.822;-0.326;2022-11-09T05:01:56;13.23;;;2.90;;
44564;SDS011;30275;51.822;-0.326;2022-11-09T05:04:22;14.35;;;2.03;;
44564;SDS011;30275;51.822;-0.326;2022-11-09T05:06:48;16.40;;;2.60;;
44564;SDS011;30275;51.822;-0.326;2022-11-09T05:09:13;9.50;;;1.90;;
44564;SDS011;30275;51.822;-0.326;2022-11-09T05:11:39;16.85;;;2.75;;
44564;SDS011;30275;51.822;-0.326;2022-11-09T05:14:05;16.77;;;2.40;;
44564;SDS011;30275;51.822;-0.326;2022-11-09T05:16:30;16.48;;;3.05;;
44564;SDS011;30275;51.822;-0.326;2022-11-09T05:18:56;10.88;;;2.28;;
44564;SDS011;30275;51.822;-0.326;2022-11-09T05:21:21;11.35;;;1.98;;
44564;SDS011;30275;51.822;-0.326;2022-11-09T05:23:47;15.15;;;2.90;;
44564;SDS011;30275;51.822;-0.326;2022-11-09T05:26:27;13.07;;;2.85;;
44564;SDS011;30275;51.822;-0.326;2022-11-09T05:29:02;8.25;;;1.83;;
44564;SDS011;30275;51.822;-0.326;2022-11-09T05:31:29;7.32;;;1.88;;
44564;SDS011;30275;51.822;-0.326;2022-11-09T05:33:56;14.60;;;2.00;;
44564;SDS011;30275;51.822;-0.326;2022-11-09T05:36:23;12.10;;;2.03;;
44564;SDS011;30275;51.822;-0.326;2022-11-09T05:38:49;16.88;;;2.95;;
44564;SDS011;30275;51.822;-0.326;2022-11-09T05:41:15;11.27;;;2.10;;
44564;SDS011;30275;51.822;-0.326;2022-11-09T05:43:41;8.18;;;2.25;;
44564;SDS011;30275;51.822;-0.326;2022-11-09T05:46:08;14.57;;;2.28;;
44564;SDS011;30275;51.822;-0.326;2022-11-09T05:48:34;11.10;;;2.50;;
44564;SDS011;30275;51.822;-0.326;2022-11-09T05:51:03;12.00;;;3.55;;
44564;SDS011;30275;51.822;-0.326;2022-11-09T05:53:30;10.18;;;3.53;;
44564;SDS011;30275;51.822;-0.326;2022-11-09T05:56:00;9.75;;;2.05;;
44564;SDS011;30275;51.822;-0.326;2022-11-09T05:58:27;9.35;;;2.03;;
44564;SDS011;30275;51.822;-0.326;2022-11-09T06:00:53;9.20;;;2.08;;
44564;SDS011;30275;51.822;-0.326;2022-11-09T06:03:19;8.85;;;2.42;;
44564;SDS011;30275;51.822;-0.326;2022-11-09T06:05:44;12.13;;;2.90;;
44564;SDS011;30275;51.822;-0.326;2022-11-09T06:08:12;19.17;;;2.75;;
44564;SDS011;30275;51.822;-0.326;2022-11-09T06:10:39;11.68;;;2.00;;
44564;SDS011;30275;51.822;-0.326;2022-11-09T06:13:05;10.82;;;2.30;;
44564;SDS011;30275;51.822;-0.326;2022-11-09T06:15:31;12.75;;;3.88;;
44564;SDS011;30275;51.822;-0.326;2022-11-09T06:17:57;11.00;;;2.22;;
44564;SDS011;30275;51.822;-0.326;2022-11-09T06:20:24;13.00;;;2.60;;
44564;SDS011;30275;51.822;-0.326;2022-11-09T06:22:54;9.50;;;2.25;;
44564;SDS011;30275;51.822;-0.326;2022-11-09T06:25:24;7.18;;;1.70;;
44564;SDS011;30275;51.822;-0.326;2022-11-09T06:27:54;9.77;;;2.50;;
44564;SDS011;30275;51.822;-0.326;2022-11-09T06:30:20;11.50;;;2.78;;
44564;SDS011;30275;51.822;-0.326;2022-11-09T06:32:46;6.10;;;1.90;;
44564;SDS011;30275;51.822;-0.326;2022-11-09T06:35:12;11.20;;;2.75;;
44564;SDS011;30275;51.822;-0.326;2022-11-09T06:37:38;10.45;;;2.30;;
44564;SDS011;30275;51.822;-0.326;2022-11-09T06:40:04;9.18;;;2.67;;
44564;SDS011;30275;51.822;-0.326;2022-11-09T06:42:30;7.78;;;1.52;;
44564;SDS011;30275;51.822;-0.326;2022-11-09T06:44:56;8.65;;;1.92;;
44564;SDS011;30275;51.822;-0.326;2022-11-09T06:47:21;9.30;;;1.75;;
44564;SDS011;30275;51.822;-0.326;2022-11-09T06:49:47;14.10;;;2.97;;
44564;SDS011;30275;51.822;-0.326;2022-11-09T06:52:14;16.95;;;3.05;;
44564;SDS011;30275;51.822;-0.326;2022-11-09T06:54:40;5.72;;;2.05;;
44564;SDS011;30275;51.822;-0.326;2022-11-09T06:57:05;14.10;;;2.63;;
44564;SDS011;30275;51.822;-0.326;2022-11-09T06:59:31;8.50;;;1.95;;
44564;SDS011;30275;51.822;-0.326;2022-11-09T07:01:57;9.95;;;2.00;;
44564;SDS011;30275;51.822;-0.326;2022-11-09T07:04:22;11.40;;;2.28;;
44564;SDS011;30275;51.822;-0.326;2022-11-09T07:06:48;13.52;;;3.65;;
44564;SDS011;30275;51.822;-0.326;2022-11-09T07:09:14;11.40;;;3.10;;
44564;SDS011;30275;51.822;-0.326;2022-11-09T07:11:39;11.25;;;2.20;;
44564;SDS011;30275;51.822;-0.326;2022-11-09T07:14:05;8.32;;;2.45;;
44564;SDS011;30275;51.822;-0.326;2022-11-09T07:16:34;14.57;;;4.43;;
44564;SDS011;30275;51.822;-0.326;2022-11-09T07:19:01;12.13;;;2.05;;
44564;SDS011;30275;51.822;-0.326;2022-11-09T07:21:27;12.23;;;2.00;;
44564;SDS011;30275;51.822;-0.326;2022-11-09T07:23:52;7.90;;;1.95;;
44564;SDS011;30275;51.822;-0.326;2022-11-09T07:26:19;13.98;;;2.80;;
44564;SDS011;30275;51.822;-0.326;2022-11-09T07:28:51;5.18;;;2.03;;
44564;SDS011;30275;51.822;-0.326;2022-11-09T07:31:17;7.63;;;2.05;;
44564;SDS011;30275;51.822;-0.326;2022-11-09T07:33:42;4.20;;;1.48;;
44564;SDS011;30275;51.822;-0.326;2022-11-09T07:36:14;6.38;;;1.77;;
44564;SDS011;30275;51.822;-0.326;2022-11-09T07:38:40;9.13;;;1.83;;
44564;SDS011;30275;51.822;-0.326;2022-11-09T07:41:05;8.95;;;1.77;;
44564;SDS011;30275;51.822;-0.326;2022-11-09T07:43:31;5.47;;;1.70;;
44564;SDS011;30275;51.822;-0.326;2022-11-09T07:45:57;2.95;;;1.48;;
44564;SDS011;30275;51.822;-0.326;2022-11-09T07:48:23;4.57;;;2.10;;
44564;SDS011;30275;51.822;-0.326;2022-11-09T07:50:48;8.57;;;1.83;;
44564;SDS011;30275;51.822;-0.326;2022-11-09T07:53:14;3.10;;;1.00;;
44564;SDS011;30275;51.822;-0.326;2022-11-09T07:55:41;5.43;;;1.50;;
44564;SDS011;30275;51.822;-0.326;2022-11-09T07:58:08;3.28;;;1.20;;
44564;SDS011;30275;51.822;-0.326;2022-11-09T08:00:37;6.55;;;1.30;;
44564;SDS011;30275;51.822;-0.326;2022-11-09T08:03:04;5.45;;;1.50;;
44564;SDS011;30275;51.822;-0.326;2022-11-09T08:05:30;0.77;;;0.57;;
44564;SDS011;30275;51.822;-0.326;2022-11-09T08:07:57;6.45;;;1.50;;
44564;SDS011;30275;51.822;-0.326;2022-11-09T08:10:25;5.45;;;0.80;;
44564;SDS011;30275;51.822;-0.326;2022-11-09T08:12:55;4.20;;;1.48;;
44564;SDS011;30275;51.822;-0.326;2022-11-09T08:15:22;3.22;;;1.10;;
44564;SDS011;30275;51.822;-0.326;2022-11-09T08:17:48;5.47;;;2.20;;
44564;SDS011;30275;51.822;-0.326;2022-11-09T08:20:14;2.60;;;0.95;;
44564;SDS011;30275;51.822;-0.326;2022-11-09T08:22:41;4.47;;;1.40;;
44564;SDS011;30275;51.822;-0.326;2022-11-09T08:25:08;3.25;;;1.60;;
44564;SDS011;30275;51.822;-0.326;2022-11-09T08:27:34;7.13;;;1.20;;
44564;SDS011;30275;51.822;-0.326;2022-11-09T08:30:04;2.60;;;0.85;;
44564;SDS011;30275;51.822;-0.326;2022-11-09T08:32:31;6.78;;;1.77;;
44564;SDS011;30275;51.822;-0.326;2022-11-09T08:34:59;3.67;;;1.23;;
44564;SDS011;30275;51.822;-0.326;2022-11-09T08:37:30;3.65;;;0.88;;
44564;SDS011;30275;51.822;-0.326;2022-11-09T08:39:59;2.45;;;1.13;;
44564;SDS011;30275;51.822;-0.326;2022-11-09T08:42:24;9.93;;;1.65;;
44564;SDS011;30275;51.822;-0.326;2022-11-09T08:44:50;4.70;;;1.05;;
44564;SDS011;30275;51.822;-0.326;2022-11-09T08:47:15;2.38;;;1.02;;
44564;SDS011;30275;51.822;-0.326;2022-11-09T08:49:41;2.80;;;0.85;;
44564;SDS011;30275;51.822;-0.326;2022-11-09T08:52:08;4.47;;;1.10;;
44564;SDS011;30275;51.822;-0.326;2022-11-09T08:54:34;1.38;;;0.70;;
44564;SDS011;30275;51.822;-0.326;2022-11-09T08:57:00;1.23;;;0.68;;
44564;SDS011;30275;51.822;-0.326;2022-11-09T08:59:26;2.83;;;0.85;;
44564;SDS011;30275;51.822;-0.326;2022-11-09T09:01:52;4.18;;;0.82;;
44564;SDS011;30275;51.822;-0.326;2022-11-09T09:04:17;4.88;;;1.27;;
44564;SDS011;30275;51.822;-0.326;2022-11-09T09:06:43;5.28;;;1.02;;
44564;SDS011;30275;51.822;-0.326;2022-11-09T09:09:08;4.47;;;1.23;;
44564;SDS011;30275;51.822;-0.326;2022-11-09T09:11:34;2.35;;;0.77;;
44564;SDS011;30275;51.822;-0.326;2022-11-09T09:14:00;2.90;;;0.93;;
44564;SDS011;30275;51.822;-0.326;2022-11-09T09:16:25;3.25;;;1.25;;
44564;SDS011;30275;51.822;-0.326;2022-11-09T09:18:51;2.03;;;0.52;;
44564;SDS011;30275;51.822;-0.326;2022-11-09T09:21:17;3.78;;;1.88;;
44564;SDS011;30275;51.822;-0.326;2022-11-09T09:23:42;3.25;;;2.15;;
44564;SDS011;30275;51.822;-0.326;2022-11-09T09:26:08;2.10;;;0.73;;
44564;SDS011;30275;51.822;-0.326;2022-11-09T09:28:33;1.33;;;0.70;;
44564;SDS011;30275;51.822;-0.326;2022-11-09T09:31:00;4.03;;;0.75;;
44564;SDS011;30275;51.822;-0.326;2022-11-09T09:33:26;3.63;;;0.73;;
44564;SDS011;30275;51.822;-0.326;2022-11-09T09:35:56;1.13;;;0.70;;
44564;SDS011;30275;51.822;-0.326;2022-11-09T09:38:22;1.98;;;0.68;;
44564;SDS011;30275;51.822;-0.326;2022-11-09T09:43:29;2.20;;;0.77;;
44564;SDS011;30275;51.822;-0.326;2022-11-09T09:46:39;4.28;;;1.20;;
44564;SDS011;30275;51.822;-0.326;2022-11-09T09:49:10;4.00;;;0.80;;
44564;SDS011;30275;51.822;-0.326;2022-11-09T09:51:41;3.10;;;0.68;;
44564;SDS011;30275;51.822;-0.326;2022-11-09T09:54:19;1.95;;;0.73;;
44564;SDS011;30275;51.822;-0.326;2022-11-09T09:56:48;1.40;;;0.75;;
44564;SDS011;30275;51.822;-0.326;2022-11-09T09:59:19;2.58;;;1.00;;
44564;SDS011;30275;51.822;-0.326;2022-11-09T10:02:05;0.30;;;0.30;;
44564;SDS011;30275;51.822;-0.326;2022-11-09T10:04:44;0.90;;;0.75;;
44564;SDS011;30275;51.822;-0.326;2022-11-09T10:07:12;2.47;;;0.70;;
44564;SDS011;30275;51.822;-0.326;2022-11-09T10:12:38;4.72;;;1.35;;
44564;SDS011;30275;51.822;-0.326;2022-11-09T10:26:02;1.52;;;0.95;;
44564;SDS011;30275;51.822;-0.326;2022-11-09T10:28:29;2.45;;;1.05;;
44564;SDS011;30275;51.822;-0.326;2022-11-09T10:30:57;1.20;;;0.70;;
44564;SDS011;30275;51.822;-0.326;2022-11-09T10:33:24;1.15;;;0.57;;
44564;SDS011;30275;51.822;-0.326;2022-11-09T10:35:54;0.82;;;0.45;;
44564;SDS011;30275;51.822;-0.326;2022-11-09T10:38:39;1.10;;;0.53;;
44564;SDS011;30275;51.822;-0.326;2022-11-09T10:44:12;2.20;;;0.75;;
44564;SDS011;30275;51.822;-0.326;2022-11-09T10:49:31;2.95;;;0.63;;
44564;SDS011;30275;51.822;-0.326;2022-11-09T10:51:58;2.08;;;0.40;;
44564;SDS011;30275;51.822;-0.326;2022-11-09T10:54:25;3.50;;;0.65;;
44564;SDS011;30275;51.822;-0.326;2022-11-09T10:59:44;1.55;;;0.55;;
44564;SDS011;30275;51.822;-0.326;2022-11-09T11:07:31;3.58;;;0.75;;
44564;SDS011;30275;51.822;-0.326;2022-11-09T11:12:44;2.92;;;0.80;;
44564;SDS011;30275;51.822;-0.326;2022-11-09T11:15:37;3.88;;;0.50;;
44564;SDS011;30275;51.822;-0.326;2022-11-09T11:18:05;2.08;;;0.50;;
44564;SDS011;30275;51.822;-0.326;2022-11-09T11:20:42;2.03;;;0.60;;
44564;SDS011;30275;51.822;-0.326;2022-11-09T11:23:17;2.22;;;0.77;;
44564;SDS011;30275;51.822;-0.326;2022-11-09T11:30:59;2.45;;;0.85;;
44564;SDS011;30275;51.822;-0.326;2022-11-09T11:33:26;1.40;;;0.43;;
44564;SDS011;30275;51.822;-0.326;2022-11-09T11:36:03;4.53;;;0.77;;
44564;SDS011;30275;51.822;-0.326;2022-11-09T11:38:42;4.53;;;0.82;;
44564;SDS011;30275;51.822;-0.326;2022-11-09T11:44:23;5.95;;;1.02;;
44564;SDS011;30275;51.822;-0.326;2022-11-09T11:49:41;3.28;;;1.35;;
44564;SDS011;30275;51.822;-0.326;2022-11-09T11:52:14;2.53;;;0.65;;
44564;SDS011;30275;51.822;-0.326;2022-11-09T11:54:50;4.97;;;2.05;;
44564;SDS011;30275;51.822;-0.326;2022-11-09T12:00:08;6.47;;;1.35;;
44564;SDS011;30275;51.822;-0.326;2022-11-09T12:14:10;4.63;;;1.10;;
44564;SDS011;30275;51.822;-0.326;2022-11-09T12:16:44;3.05;;;1.08;;
44564;SDS011;30275;51.822;-0.326;2022-11-09T12:29:31;2.38;;;0.90;;
44564;SDS011;30275;51.822;-0.326;2022-11-09T12:37:43;5.18;;;1.33;;
44564;SDS011;30275;51.822;-0.326;2022-11-09T12:45:22;1.77;;;0.73;;
44564;SDS011;30275;51.822;-0.326;2022-11-09T12:48:21;1.50;;;0.70;;
44564;SDS011;30275;51.822;-0.326;2022-11-09T12:50:56;0.85;;;0.60;;
44564;SDS011;30275;51.822;-0.326;2022-11-09T12:53:24;3.28;;;1.20;;
44564;SDS011;30275;51.822;-0.326;2022-11-09T12:58:20;4.55;;;1.02;;
44564;SDS011;30275;51.822;-0.326;2022-11-09T13:00:55;3.40;;;1.00;;
44564;SDS011;30275;51.822;-0.326;2022-11-09T13:03:30;1.10;;;0.47;;
44564;SDS011;30275;51.822;-0.326;2022-11-09T13:06:08;1.80;;;0.68;;
44564;SDS011;30275;51.822;-0.326;2022-11-09T13:11:39;2.22;;;0.70;;
44564;SDS011;30275;51.822;-0.326;2022-11-09T13:19:47;1.23;;;0.82;;
44564;SDS011;30275;51.822;-0.326;2022-11-09T13:24:51;1.98;;;0.82;;
44564;SDS011;30275;51.822;-0.326;2022-11-09T13:45:36;7.47;;;0.80;;
44564;SDS011;30275;51.822;-0.326;2022-11-09T13:51:15;2.30;;;0.70;;
44564;SDS011;30275;51.822;-0.326;2022-11-09T14:07:19;1.67;;;0.55;;
44564;SDS011;30275;51.822;-0.326;2022-11-09T14:13:00;1.70;;;0.80;;
44564;SDS011;30275;51.822;-0.326;2022-11-09T14:23:30;1.65;;;0.70;;
44564;SDS011;30275;51.822;-0.326;2022-11-09T14:25:57;1.35;;;0.80;;
44564;SDS011;30275;51.822;-0.326;2022-11-09T14:28:30;4.00;;;1.23;;
44564;SDS011;30275;51.822;-0.326;2022-11-09T14:30:58;2.38;;;0.70;;
44564;SDS011;30275;51.822;-0.326;2022-11-09T14:33:28;4.53;;;1.10;;
44564;SDS011;30275;51.822;-0.326;2022-11-09T14:35:58;3.90;;;1.55;;
44564;SDS011;30275;51.822;-0.326;2022-11-09T14:38:32;1.58;;;0.85;;
44564;SDS011;30275;51.822;-0.326;2022-11-09T14:41:00;9.00;;;1.35;;
44564;SDS011;30275;51.822;-0.326;2022-11-09T14:45:55;4.55;;;0.93;;
44564;SDS011;30275;51.822;-0.326;2022-11-09T14:48:25;2.70;;;0.95;;
44564;SDS011;30275;51.822;-0.326;2022-11-09T14:50:52;0.63;;;0.63;;
44564;SDS011;30275;51.822;-0.326;2022-11-09T14:53:21;3.45;;;1.17;;
44564;SDS011;30275;51.822;-0.326;2022-11-09T14:55:52;5.95;;;1.08;;
44564;SDS011;30275;51.822;-0.326;2022-11-09T14:58:19;3.90;;;1.17;;
44564;SDS011;30275;51.822;-0.326;2022-11-09T15:01:04;3.60;;;1.00;;
44564;SDS011;30275;51.822;-0.326;2022-11-09T15:03:45;5.70;;;1.13;;
44564;SDS011;30275;51.822;-0.326;2022-11-09T15:06:29;2.28;;;1.10;;
44564;SDS011;30275;51.822;-0.326;2022-11-09T15:08:57;6.72;;;1.38;;
44564;SDS011;30275;51.822;-0.326;2022-11-09T15:11:35;3.38;;;1.00;;
44564;SDS011;30275;51.822;-0.326;2022-11-09T15:16:43;3.22;;;1.23;;
44564;SDS011;30275;51.822;-0.326;2022-11-09T15:21:47;4.70;;;1.20;;
44564;SDS011;30275;51.822;-0.326;2022-11-09T15:24:13;2.58;;;1.30;;
44564;SDS011;30275;51.822;-0.326;2022-11-09T15:26:45;3.35;;;0.90;;
44564;SDS011;30275;51.822;-0.326;2022-11-09T15:34:39;4.20;;;1.08;;
44564;SDS011;30275;51.822;-0.326;2022-11-09T15:40:04;5.63;;;1.80;;
44564;SDS011;30275;51.822;-0.326;2022-11-09T15:42:34;2.38;;;0.60;;
44564;SDS011;30275;51.822;-0.326;2022-11-09T15:44:59;2.65;;;0.73;;
44564;SDS011;30275;51.822;-0.326;2022-11-09T15:47:27;13.05;;;1.25;;
44564;SDS011;30275;51.822;-0.326;2022-11-09T15:49:56;4.25;;;1.13;;
44564;SDS011;30275;51.822;-0.326;2022-11-09T15:52:23;3.80;;;1.50;;
44564;SDS011;30275;51.822;-0.326;2022-11-09T15:54:48;2.50;;;0.88;;
44564;SDS011;30275;51.822;-0.326;2022-11-09T15:57:15;4.57;;;1.13;;
44564;SDS011;30275;51.822;-0.326;2022-11-09T15:59:43;3.50;;;1.48;;
44564;SDS011;30275;51.822;-0.326;2022-11-09T16:02:11;3.15;;;1.55;;
44564;SDS011;30275;51.822;-0.326;2022-11-09T16:04:37;2.58;;;1.20;;
44564;SDS011;30275;51.822;-0.326;2022-11-09T16:07:03;6.05;;;1.30;;
44564;SDS011;30275;51.822;-0.326;2022-11-09T16:09:30;2.53;;;1.30;;
44564;SDS011;30275;51.822;-0.326;2022-11-09T16:11:55;6.18;;;1.40;;
44564;SDS011;30275;51.822;-0.326;2022-11-09T16:14:21;4.53;;;1.10;;
44564;SDS011;30275;51.822;-0.326;2022-11-09T16:16:47;4.80;;;1.25;;
44564;SDS011;30275;51.822;-0.326;2022-11-09T16:19:13;2.95;;;1.10;;
44564;SDS011;30275;51.822;-0.326;2022-11-09T16:21:39;8.60;;;1.38;;
44564;SDS011;30275;51.822;-0.326;2022-11-09T16:24:06;8.43;;;3.33;;
44564;SDS011;30275;51.822;-0.326;2022-11-09T16:26:31;4.00;;;1.63;;
44564;SDS011;30275;51.822;-0.326;2022-11-09T16:28:57;11.02;;;1.70;;
44564;SDS011;30275;51.822;-0.326;2022-11-09T16:31:23;5.35;;;1.23;;
44564;SDS011;30275;51.822;-0.326;2022-11-09T16:33:49;8.02;;;1.20;;
44564;SDS011;30275;51.822;-0.326;2022-11-09T16:36:16;2.60;;;1.45;;
44564;SDS011;30275;51.822;-0.326;2022-11-09T16:38:46;3.50;;;1.08;;
44564;SDS011;30275;51.822;-0.326;2022-11-09T16:41:14;4.10;;;0.90;;
44564;SDS011;30275;51.822;-0.326;2022-11-09T16:43:41;4.15;;;1.10;;
44564;SDS011;30275;51.822;-0.326;2022-11-09T16:46:11;3.13;;;1.10;;
44564;SDS011;30275;51.822;-0.326;2022-11-09T16:48:52;5.80;;;1.23;;
44564;SDS011;30275;51.822;-0.326;2022-11-09T16:51:19;4.30;;;1.73;;
44564;SDS011;30275;51.822;-0.326;2022-11-09T16:53:44;5.38;;;1.40;;
44564;SDS011;30275;51.822;-0.326;2022-11-09T16:56:10;4.65;;;1.40;;
44564;SDS011;30275;51.822;-0.326;2022-11-09T16:58:36;6.72;;;1.73;;
44564;SDS011;30275;51.822;-0.326;2022-11-09T17:01:01;5.80;;;1.98;;
44564;SDS011;30275;51.822;-0.326;2022-11-09T17:03:27;3.85;;;1.27;;
44564;SDS011;30275;51.822;-0.326;2022-11-09T17:05:58;3.70;;;2.17;;
44564;SDS011;30275;51.822;-0.326;2022-11-09T17:08:25;5.00;;;1.58;;
44564;SDS011;30275;51.822;-0.326;2022-11-09T17:10:51;4.72;;;1.55;;
44564;SDS011;30275;51.822;-0.326;2022-11-09T17:13:16;5.78;;;1.52;;
44564;SDS011;30275;51.822;-0.326;2022-11-09T17:15:42;4.68;;;1.52;;
44564;SDS011;30275;51.822;-0.326;2022-11-09T17:18:10;3.30;;;1.20;;